Time;durP1;ratioP1;P1;durP2;ratioP2;P2;SDS_P1;SDS_P2;PMS_P1;PMS_P2;Temp;Humidity;BMP_temperature;BMP_pressure;BME280_temperature;BME280_humidity;BME280_pressure;Samples;Min_cycle;Max_cycle;Signal;HPM_P1;HPM_P2
2023/07/11 00:00:55;;;;;;;4.43;1.15;;;;;;;18.41;100.00;100596.72;5028975;28;20033;-53
2023/07/11 00:03:21;;;;;;;4.03;0.93;;;;;;;18.34;100.00;100597.94;5027155;28;20156;-50
2023/07/11 00:06:04;;;;;;;11.63;1.35;;;;;;;18.39;100.00;100582.72;5030165;28;20063;-47
2023/07/11 00:08:30;;;;;;;5.90;1.02;;;;;;;18.42;100.00;100570.69;5031574;28;20502;-46
2023/07/11 00:10:56;;;;;;;5.43;1.42;;;;;;;18.40;100.00;100583.53;5029588;28;20506;-45
2023/07/11 00:13:21;;;;;;;7.05;1.65;;;;;;;18.35;100.00;100573.50;5028424;28;20033;-46
2023/07/11 00:15:59;;;;;;;3.70;0.40;;;;;;;18.39;100.00;100571.19;5034304;28;20556;-48
2023/07/11 00:18:24;;;;;;;7.80;1.40;;;;;;;18.38;100.00;100567.69;5034940;28;20110;-49
2023/07/11 00:20:50;;;;;;;12.55;1.27;;;;;;;18.42;100.00;100568.81;5029715;28;20042;-51
2023/07/11 00:23:15;;;;;;;7.10;0.90;;;;;;;18.46;100.00;100567.28;5026029;28;20026;-49
2023/07/11 00:25:40;;;;;;;3.58;0.65;;;;;;;18.44;100.00;100564.03;5029237;28;20485;-48
2023/07/11 00:28:06;;;;;;;4.47;0.93;;;;;;;18.41;100.00;100567.22;5034766;28;20071;-47
2023/07/11 00:30:31;;;;;;;3.00;0.50;;;;;;;18.46;100.00;100564.63;5033426;28;20044;-49
2023/07/11 00:32:56;;;;;;;7.15;1.13;;;;;;;18.46;100.00;100551.19;5033577;28;20474;-50
2023/07/11 00:35:21;;;;;;;6.18;1.48;;;;;;;18.42;100.00;100539.28;5032580;28;20116;-45
2023/07/11 00:37:47;;;;;;;4.53;0.45;;;;;;;18.45;100.00;100538.00;5031072;28;20049;-45
2023/07/11 00:40:12;;;;;;;5.43;0.63;;;;;;;18.35;100.00;100533.25;5025716;28;20045;-56
2023/07/11 00:42:37;;;;;;;2.47;1.15;;;;;;;18.40;100.00;100532.53;5035937;28;20029;-49
2023/07/11 00:45:03;;;;;;;2.95;1.42;;;;;;;18.40;100.00;100530.66;5029680;28;20669;-46
2023/07/11 00:47:30;;;;;;;5.55;1.10;;;;;;;18.42;100.00;100519.69;5040826;28;20037;-49
2023/07/11 00:50:05;;;;;;;6.45;0.93;;;;;;;18.43;100.00;100519.47;5033047;28;20033;-48
2023/07/11 00:52:34;;;;;;;6.25;1.25;;;;;;;18.39;100.00;100523.69;5034536;28;20390;-49
2023/07/11 00:55:05;;;;;;;4.85;1.08;;;;;;;18.41;100.00;100520.75;5030157;28;20057;-48
2023/07/11 00:57:35;;;;;;;5.97;0.75;;;;;;;18.38;100.00;100522.06;5031773;28;20040;-46
2023/07/11 01:00:01;;;;;;;9.68;2.25;;;;;;;18.36;100.00;100526.03;5023937;28;20033;-53
2023/07/11 01:02:28;;;;;;;8.73;1.05;;;;;;;18.35;100.00;100517.16;5025980;28;20594;-51
2023/07/11 01:04:54;;;;;;;6.63;0.70;;;;;;;18.32;100.00;100523.00;5032310;28;20493;-52
2023/07/11 01:07:23;;;;;;;3.40;0.80;;;;;;;18.25;100.00;100527.69;5035520;28;20120;-50
2023/07/11 01:09:49;;;;;;;1.58;0.65;;;;;;;18.24;100.00;100520.72;5032440;28;20028;-50
2023/07/11 01:12:16;;;;;;;3.55;0.80;;;;;;;18.18;100.00;100517.13;5027708;28;20436;-49
2023/07/11 01:14:45;;;;;;;6.05;1.90;;;;;;;18.12;100.00;100507.34;5028941;28;20417;-46
2023/07/11 01:17:40;;;;;;;4.18;0.57;;;;;;;18.04;100.00;100505.88;5040975;28;20506;-45
2023/07/11 01:20:09;;;;;;;4.45;1.05;;;;;;;18.11;100.00;100502.22;5038185;28;20641;-52
2023/07/11 01:22:36;;;;;;;4.82;0.52;;;;;;;18.13;100.00;100498.25;5034554;28;20037;-54
2023/07/11 01:25:09;;;;;;;6.10;0.52;;;;;;;18.09;100.00;100503.28;5027434;28;20083;-49
2023/07/11 01:27:36;;;;;;;6.72;1.42;;;;;;;18.17;100.00;100494.00;5031904;28;20040;-47
2023/07/11 01:30:04;;;;;;;8.02;1.25;;;;;;;18.12;100.00;100491.25;5036327;28;20037;-49
2023/07/11 01:32:30;;;;;;;1.70;0.45;;;;;;;18.09;100.00;100481.81;5036573;28;20025;-46
2023/07/11 01:34:55;;;;;;;1.92;1.52;;;;;;;18.13;100.00;100478.66;5037307;28;20044;-50
2023/07/11 01:37:21;;;;;;;5.30;0.30;;;;;;;18.09;100.00;100478.31;5035265;28;20430;-48
2023/07/11 01:39:46;;;;;;;2.10;0.60;;;;;;;18.05;100.00;100490.59;5032312;28;20036;-50
2023/07/11 01:42:11;;;;;;;1.23;0.60;;;;;;;18.00;100.00;100482.44;5033493;28;20081;-48
2023/07/11 01:44:37;;;;;;;1.42;0.63;;;;;;;17.99;100.00;100480.81;5028760;28;20359;-44
2023/07/11 01:47:02;;;;;;;3.88;0.73;;;;;;;17.37;100.00;100500.19;5036817;28;20111;-49
2023/07/11 01:49:28;;;;;;;1.60;0.38;;;;;;;17.15;100.00;100503.47;5035580;28;20031;-50
2023/07/11 01:52:04;;;;;;;2.97;0.68;;;;;;;17.21;100.00;100502.53;5033971;28;20103;-53
2023/07/11 01:54:29;;;;;;;4.00;0.38;;;;;;;17.15;100.00;100498.13;5037222;28;20025;-52
2023/07/11 01:56:54;;;;;;;6.55;1.55;;;;;;;17.17;100.00;100508.63;5039994;28;20056;-49
2023/07/11 01:59:20;;;;;;;5.97;1.17;;;;;;;17.49;100.00;100484.91;5032899;28;20033;-47
2023/07/11 02:01:45;;;;;;;0.75;0.75;;;;;;;17.54;100.00;100473.47;5036816;28;20037;-51
2023/07/11 02:04:10;;;;;;;3.40;0.70;;;;;;;17.56;100.00;100479.44;5036751;28;20394;-50
2023/07/11 02:06:35;;;;;;;3.25;0.85;;;;;;;17.29;100.00;100477.25;5036873;28;20029;-47
2023/07/11 02:09:02;;;;;;;2.08;0.63;;;;;;;17.23;100.00;100479.00;5042974;28;20255;-50
2023/07/11 02:11:28;;;;;;;2.40;1.65;;;;;;;17.19;100.00;100480.53;5038549;28;20025;-49
2023/07/11 02:13:53;;;;;;;3.85;1.70;;;;;;;17.15;100.00;100479.38;5035787;28;20552;-48
2023/07/11 02:16:18;;;;;;;1.95;0.73;;;;;;;17.15;100.00;100475.88;5034477;28;20029;-47
2023/07/11 02:18:44;;;;;;;2.10;0.50;;;;;;;17.16;100.00;100485.53;5038758;28;20442;-51
2023/07/11 02:21:09;;;;;;;1.88;0.77;;;;;;;17.46;100.00;100460.44;5029712;28;20489;-50
2023/07/11 02:23:34;;;;;;;3.70;0.65;;;;;;;17.19;100.00;100469.81;5035202;28;20465;-52
2023/07/11 02:26:00;;;;;;;2.90;1.05;;;;;;;17.14;100.00;100466.19;5028056;28;20419;-46
2023/07/11 02:28:25;;;;;;;2.92;0.40;;;;;;;17.20;100.00;100463.41;5035979;28;20111;-50
2023/07/11 02:30:50;;;;;;;2.30;0.38;;;;;;;17.46;100.00;100455.91;5036003;28;20029;-48
2023/07/11 02:33:16;;;;;;;3.13;0.25;;;;;;;17.32;100.00;100454.53;5032504;28;20033;-50
2023/07/11 02:35:41;;;;;;;2.42;0.80;;;;;;;17.41;100.00;100463.84;5035509;28;20029;-51
2023/07/11 02:38:07;;;;;;;0.55;0.22;;;;;;;17.57;100.00;100444.31;5033424;28;20025;-53
2023/07/11 02:40:32;;;;;;;3.35;0.30;;;;;;;17.65;100.00;100443.94;5033717;28;20445;-48
2023/07/11 02:42:58;;;;;;;1.65;0.57;;;;;;;17.72;100.00;100451.03;5036059;28;20535;-46
2023/07/11 02:45:23;;;;;;;3.92;0.32;;;;;;;17.74;100.00;100436.34;5039813;28;20041;-46
2023/07/11 02:47:49;;;;;;;0.75;0.10;;;;;;;17.78;100.00;100437.47;5057552;28;20154;-48
2023/07/11 02:50:15;;;;;;;2.28;0.60;;;;;;;17.65;100.00;100441.25;5031112;28;20037;-47
2023/07/11 02:52:40;;;;;;;4.78;0.68;;;;;;;17.41;100.00;100440.53;5036851;28;20029;-50
2023/07/11 02:55:06;;;;;;;2.75;0.30;;;;;;;17.39;100.00;100445.31;5037631;28;20032;-47
2023/07/11 02:57:32;;;;;;;1.23;0.43;;;;;;;17.40;100.00;100446.13;5029152;28;20037;-46
2023/07/11 02:59:57;;;;;;;4.38;0.95;;;;;;;17.46;100.00;100453.22;5028023;28;20501;-46
2023/07/11 03:02:22;;;;;;;0.10;0.10;;;;;;;17.43;100.00;100459.88;5025546;28;20041;-50
2023/07/11 03:04:48;;;;;;;2.95;0.63;;;;;;;17.49;100.00;100458.09;5031044;28;20427;-46
2023/07/11 03:07:13;;;;;;;3.42;0.38;;;;;;;17.49;100.00;100460.78;5034581;28;20056;-51
2023/07/11 03:09:38;;;;;;;3.03;0.20;;;;;;;17.72;100.00;100457.22;5032209;28;20029;-46
2023/07/11 03:12:05;;;;;;;1.20;0.35;;;;;;;17.81;100.00;100452.31;5033239;28;20083;-52
2023/07/11 03:14:30;;;;;;;1.42;0.35;;;;;;;17.91;100.00;100451.69;5033781;28;20029;-47
2023/07/11 03:16:55;;;;;;;0.60;0.10;;;;;;;17.89;100.00;100443.91;5029228;28;20370;-51
2023/07/11 03:19:21;;;;;;;3.45;0.30;;;;;;;18.01;100.00;100452.69;5031015;28;20068;-49
2023/07/11 03:21:47;;;;;;;2.83;0.20;;;;;;;18.07;100.00;100457.09;5031752;28;20039;-47
2023/07/11 03:24:12;;;;;;;0.88;0.00;;;;;;;18.12;100.00;100458.25;5035422;28;20134;-49
2023/07/11 03:26:38;;;;;;;0.43;0.25;;;;;;;18.14;100.00;100466.88;5031565;28;20475;-50
2023/07/11 03:29:03;;;;;;;0.03;0.00;;;;;;;18.09;100.00;100460.34;5034105;28;20087;-49
2023/07/11 03:31:28;;;;;;;0.88;0.10;;;;;;;18.14;100.00;100446.22;5024967;28;20052;-47
2023/07/11 03:33:54;;;;;;;0.50;0.13;;;;;;;18.16;100.00;100432.56;5036481;28;20040;-47
2023/07/11 03:36:20;;;;;;;2.13;0.00;;;;;;;18.12;100.00;100428.72;5030858;28;20033;-52
2023/07/11 03:38:46;;;;;;;0.03;0.00;;;;;;;18.08;100.00;100428.41;5033841;28;20033;-48
2023/07/11 03:41:12;;;;;;;1.45;0.10;;;;;;;18.02;100.00;100432.88;5033381;28;20048;-48
2023/07/11 03:43:37;;;;;;;1.65;1.10;;;;;;;18.02;100.00;100427.50;5038429;28;20025;-51
2023/07/11 03:46:03;;;;;;;0.13;0.00;;;;;;;17.98;100.00;100401.41;5031962;28;20304;-46
2023/07/11 03:48:29;;;;;;;0.00;0.00;;;;;;;17.99;100.00;100395.81;5033867;28;20056;-50
2023/07/11 03:50:54;;;;;;;3.63;0.20;;;;;;;17.62;100.00;100393.47;5035810;28;20037;-47
2023/07/11 03:53:20;;;;;;;0.90;0.30;;;;;;;17.57;100.00;100403.31;5031464;28;20029;-51
2023/07/11 03:55:45;;;;;;;0.00;0.00;;;;;;;17.70;100.00;100410.25;5033762;28;20106;-49
2023/07/11 03:58:11;;;;;;;0.15;0.00;;;;;;;17.86;100.00;100396.09;5034723;28;20041;-46
2023/07/11 04:00:36;;;;;;;1.13;0.00;;;;;;;17.83;100.00;100385.84;5033499;28;20086;-48
2023/07/11 04:03:01;;;;;;;2.65;0.10;;;;;;;17.85;100.00;100384.53;5033563;28;20111;-45
2023/07/11 04:05:27;;;;;;;0.00;0.00;;;;;;;17.78;100.00;100389.22;5034196;28;20526;-47
2023/07/11 04:07:52;;;;;;;0.15;0.00;;;;;;;17.82;100.00;100411.03;5029961;28;20036;-47
2023/07/11 04:10:17;;;;;;;0.40;0.35;;;;;;;17.86;100.00;100413.00;5031730;28;20055;-49
2023/07/11 04:12:43;;;;;;;6.97;0.43;;;;;;;17.81;100.00;100404.03;5029864;28;20069;-48
2023/07/11 04:15:09;;;;;;;0.45;0.00;;;;;;;17.79;100.00;100404.28;5034622;28;20436;-49
2023/07/11 04:17:34;;;;;;;2.92;0.80;;;;;;;17.72;100.00;100405.47;5034721;28;20029;-46
2023/07/11 04:19:59;;;;;;;1.98;0.10;;;;;;;17.40;100.00;100422.81;5050031;28;20486;-51
2023/07/11 04:22:24;;;;;;;4.57;0.20;;;;;;;17.31;100.00;100443.00;5033576;28;20087;-45
2023/07/11 04:24:50;;;;;;;1.75;0.00;;;;;;;17.29;100.00;100439.72;5030440;28;20033;-48
2023/07/11 04:27:15;;;;;;;0.00;0.00;;;;;;;17.19;100.00;100428.78;5031226;28;20442;-51
2023/07/11 04:29:40;;;;;;;0.98;0.00;;;;;;;17.12;100.00;100428.94;5032513;28;20579;-46
2023/07/11 04:32:06;;;;;;;0.13;0.00;;;;;;;17.04;100.00;100402.53;5029066;28;20025;-49
2023/07/11 04:34:32;;;;;;;1.45;0.52;;;;;;;16.91;100.00;100418.81;5024744;28;20029;-53
2023/07/11 04:36:57;;;;;;;0.45;0.00;;;;;;;16.86;100.00;100419.53;5031423;28;20037;-48
2023/07/11 04:39:22;;;;;;;3.78;0.15;;;;;;;16.88;100.00;100416.63;5033755;28;20247;-48
2023/07/11 04:41:48;;;;;;;0.63;0.00;;;;;;;17.08;100.00;100430.44;5038560;28;20029;-47
2023/07/11 04:44:13;;;;;;;0.60;0.00;;;;;;;16.83;100.00;100430.72;5037985;28;20040;-46
2023/07/11 04:46:38;;;;;;;0.38;0.00;;;;;;;16.72;100.00;100429.63;5034879;28;20044;-50
2023/07/11 04:49:03;;;;;;;0.77;0.00;;;;;;;16.65;100.00;100447.69;5034531;28;20037;-49
2023/07/11 04:51:29;;;;;;;0.20;0.00;;;;;;;16.58;100.00;100442.44;5032080;28;20039;-51
2023/07/11 04:53:54;;;;;;;1.45;0.10;;;;;;;16.88;100.00;100421.97;5036530;28;20025;-48
2023/07/11 04:56:20;;;;;;;0.65;0.00;;;;;;;16.97;100.00;100420.56;5036465;28;20030;-46
2023/07/11 04:58:45;;;;;;;1.08;0.10;;;;;;;16.68;100.00;100415.09;5038546;28;20400;-54
2023/07/11 05:01:12;;;;;;;0.38;0.20;;;;;;;16.56;100.00;100414.25;5029973;28;20037;-50
2023/07/11 05:03:38;;;;;;;2.97;0.32;;;;;;;16.54;100.00;100411.00;5038875;28;20036;-54
2023/07/11 05:06:04;;;;;;;4.60;0.85;;;;;;;16.51;100.00;100417.63;5035200;28;20028;-50
2023/07/11 05:08:29;;;;;;;4.60;0.65;;;;;;;16.52;100.00;100418.44;5035369;28;20507;-48
2023/07/11 05:11:05;;;;;;;1.60;0.52;;;;;;;16.72;100.00;100412.75;5034688;28;20049;-54
2023/07/11 05:13:32;;;;;;;3.45;0.40;;;;;;;16.56;100.00;100424.97;5036943;28;20031;-49
2023/07/11 05:16:02;;;;;;;1.30;0.05;;;;;;;16.93;100.00;100419.41;5037774;28;20342;-51
2023/07/11 05:18:28;;;;;;;1.33;0.35;;;;;;;16.56;100.00;100408.91;5034899;28;20077;-54
2023/07/11 05:20:54;;;;;;;1.67;0.45;;;;;;;17.09;100.00;100389.25;5036537;28;20946;-46
2023/07/11 05:23:24;;;;;;;2.20;0.00;;;;;;;16.59;100.00;100408.44;5034792;28;20029;-52
2023/07/11 05:25:50;;;;;;;1.17;0.22;;;;;;;16.87;100.00;100389.03;5039728;28;20021;-49
2023/07/11 05:28:16;;;;;;;1.27;0.45;;;;;;;16.73;100.00;100391.13;5038683;28;20033;-49
2023/07/11 05:30:41;;;;;;;0.50;0.10;;;;;;;16.96;100.00;100378.75;5039010;28;20033;-54
2023/07/11 05:33:07;;;;;;;4.70;0.52;;;;;;;17.07;100.00;100387.84;5031269;28;20124;-52
2023/07/11 05:35:37;;;;;;;0.52;0.00;;;;;;;17.07;100.00;100366.41;5033936;28;20441;-51
2023/07/11 05:38:03;;;;;;;2.92;0.43;;;;;;;17.01;100.00;100376.19;5033741;28;20061;-46
2023/07/11 05:40:30;;;;;;;2.47;0.20;;;;;;;17.09;100.00;100375.00;5036173;28;20117;-54
2023/07/11 05:42:55;;;;;;;1.23;0.57;;;;;;;17.10;100.00;100380.13;5038437;28;20025;-50
2023/07/11 05:45:21;;;;;;;4.15;0.38;;;;;;;16.80;100.00;100380.28;5041051;28;20036;-50
2023/07/11 05:47:46;;;;;;;2.25;0.98;;;;;;;16.76;100.00;100379.94;5035386;28;20116;-53
2023/07/11 05:50:11;;;;;;;0.20;0.08;;;;;;;16.69;100.00;100397.97;5039232;28;20127;-51
2023/07/11 05:52:37;;;;;;;2.90;0.57;;;;;;;16.69;100.00;100376.56;5037279;28;20037;-54
2023/07/11 05:55:03;;;;;;;0.95;0.10;;;;;;;16.81;100.00;100389.16;5035529;28;20028;-46
2023/07/11 05:57:28;;;;;;;0.82;0.00;;;;;;;16.82;100.00;100394.28;5030539;28;20042;-51
2023/07/11 05:59:53;;;;;;;1.85;0.35;;;;;;;16.84;100.00;100394.03;5035867;28;20024;-52
2023/07/11 06:02:19;;;;;;;3.13;0.20;;;;;;;16.84;100.00;100368.06;5026506;28;20045;-48
2023/07/11 06:04:44;;;;;;;1.92;0.17;;;;;;;16.87;100.00;100383.66;5042525;28;20036;-53
2023/07/11 06:07:10;;;;;;;1.80;0.15;;;;;;;16.92;100.00;100391.81;5032474;28;20521;-54
2023/07/11 06:09:35;;;;;;;0.38;0.20;;;;;;;16.52;100.00;100407.72;5033106;28;20037;-52
2023/07/11 06:12:00;;;;;;;1.90;0.10;;;;;;;16.46;100.00;100406.81;5032314;28;20041;-51
2023/07/11 06:14:27;;;;;;;1.75;0.10;;;;;;;16.47;100.00;100408.44;5036203;28;20037;-54
2023/07/11 06:16:52;;;;;;;3.50;0.20;;;;;;;16.55;100.00;100420.69;5034026;28;20071;-50
2023/07/11 06:19:18;;;;;;;9.63;0.95;;;;;;;16.64;100.00;100407.75;5031489;28;20792;-53
2023/07/11 06:21:44;;;;;;;3.60;0.30;;;;;;;16.66;100.00;100413.69;5032498;28;20037;-56
2023/07/11 06:24:10;;;;;;;2.00;0.15;;;;;;;17.05;100.00;100406.81;5026171;28;20402;-55
2023/07/11 06:26:35;;;;;;;1.38;0.30;;;;;;;17.12;100.00;100394.13;5027179;28;20033;-55
2023/07/11 06:29:00;;;;;;;1.35;0.40;;;;;;;17.20;100.00;100396.44;5038641;28;20124;-47
2023/07/11 06:31:26;;;;;;;2.72;0.30;;;;;;;17.21;100.00;100390.00;5032714;28;20044;-49
2023/07/11 06:33:51;;;;;;;3.47;0.73;;;;;;;17.27;100.00;100387.44;5029376;28;20163;-55
2023/07/11 06:36:17;;;;;;;2.78;0.22;;;;;;;16.92;100.00;100391.00;5038275;28;20060;-50
2023/07/11 06:38:42;;;;;;;2.00;0.13;;;;;;;16.85;100.00;100393.00;5033283;28;20028;-54
2023/07/11 06:41:07;;;;;;;3.60;0.30;;;;;;;16.93;100.00;100381.91;5038315;28;20387;-50
2023/07/11 06:43:33;;;;;;;2.38;0.32;;;;;;;16.86;100.00;100416.06;5035593;28;20087;-48
2023/07/11 06:46:00;;;;;;;3.60;0.20;;;;;;;16.98;100.00;100406.94;5032629;28;20031;-53
2023/07/11 06:48:28;;;;;;;4.85;0.28;;;;;;;16.96;100.00;100401.03;5028584;28;20471;-54
2023/07/11 06:50:59;;;;;;;3.92;1.20;;;;;;;16.90;100.00;100409.97;5029566;28;20106;-50
2023/07/11 06:53:28;;;;;;;1.63;0.63;;;;;;;16.95;100.00;100431.50;5029379;28;20425;-50
2023/07/11 06:55:54;;;;;;;2.45;0.38;;;;;;;17.08;100.00;100421.59;5021856;28;20045;-50
2023/07/11 06:58:21;;;;;;;0.75;0.20;;;;;;;17.13;100.00;100425.19;5026327;28;20033;-53
2023/07/11 07:01:01;;;;;;;4.38;0.47;;;;;;;17.09;100.00;100417.88;5035552;28;20183;-47
2023/07/11 07:03:27;;;;;;;2.13;0.77;;;;;;;17.07;100.00;100410.09;5032786;28;20051;-62
2023/07/11 07:05:56;;;;;;;2.63;0.35;;;;;;;17.07;100.00;100395.88;5030841;28;20029;-53
2023/07/11 07:08:23;;;;;;;3.95;0.20;;;;;;;17.10;100.00;100395.41;5032684;28;20527;-51
2023/07/11 07:10:49;;;;;;;2.60;0.32;;;;;;;17.26;100.00;100396.53;5029932;28;20486;-53
2023/07/11 07:13:17;;;;;;;1.15;0.30;;;;;;;17.23;100.00;100392.47;5025833;28;20029;-47
2023/07/11 07:15:45;;;;;;;0.80;0.22;;;;;;;16.99;100.00;100391.69;5031668;28;20032;-52
2023/07/11 07:18:10;;;;;;;2.30;0.82;;;;;;;17.10;100.00;100403.44;5031417;28;20045;-49
2023/07/11 07:20:36;;;;;;;2.17;0.82;;;;;;;17.19;100.00;100413.56;5034856;28;20025;-52
2023/07/11 07:23:03;;;;;;;1.50;0.20;;;;;;;17.33;100.00;100414.09;5036203;28;20056;-48
2023/07/11 07:25:28;;;;;;;4.65;0.52;;;;;;;17.39;100.00;100402.41;5027412;28;20033;-47
2023/07/11 07:27:54;;;;;;;10.23;0.98;;;;;;;17.46;100.00;100394.25;5031281;28;20050;-53
2023/07/11 07:30:20;;;;;;;5.60;1.77;;;;;;;17.58;100.00;100375.44;5028061;28;20055;-52
2023/07/11 07:32:45;;;;;;;2.53;0.17;;;;;;;17.75;100.00;100372.81;5034297;28;20037;-49
2023/07/11 07:35:10;;;;;;;4.18;1.10;;;;;;;17.62;100.00;100369.34;5035549;28;20029;-55
2023/07/11 07:37:36;;;;;;;7.00;1.10;;;;;;;17.60;100.00;100359.94;5025830;28;20041;-55
2023/07/11 07:40:01;;;;;;;3.78;0.43;;;;;;;17.73;100.00;100364.19;5033118;28;20108;-50
2023/07/11 07:42:26;;;;;;;6.38;0.50;;;;;;;17.70;100.00;100360.09;5032254;28;20513;-53
2023/07/11 07:44:52;;;;;;;7.65;0.65;;;;;;;17.77;100.00;100359.97;5037818;28;20036;-54
2023/07/11 07:47:17;;;;;;;5.90;0.55;;;;;;;17.83;100.00;100364.38;5030285;28;20382;-53
2023/07/11 07:49:42;;;;;;;9.98;1.50;;;;;;;17.84;100.00;100358.00;5031511;28;20033;-64
2023/07/11 07:52:08;;;;;;;1.75;0.50;;;;;;;17.92;100.00;100362.94;5027727;28;20483;-52
2023/07/11 07:54:33;;;;;;;2.90;0.52;;;;;;;17.93;100.00;100363.75;5027151;28;20109;-47
2023/07/11 07:56:58;;;;;;;4.53;1.05;;;;;;;17.97;100.00;100351.50;5032678;28;20151;-48
2023/07/11 07:59:23;;;;;;;6.65;1.75;;;;;;;18.20;100.00;100353.19;5032327;28;20029;-50
2023/07/11 08:01:49;;;;;;;3.65;0.85;;;;;;;18.51;100.00;100354.50;5026944;28;20356;-54
2023/07/11 08:04:14;;;;;;;4.15;0.50;;;;;;;18.52;100.00;100351.53;5039224;28;20520;-50
2023/07/11 08:06:39;;;;;;;4.80;0.68;;;;;;;18.31;100.00;100355.00;5031589;28;20095;-50
2023/07/11 08:09:05;;;;;;;5.95;1.17;;;;;;;18.33;100.00;100358.25;5032203;28;20114;-56
2023/07/11 08:11:30;;;;;;;2.15;0.65;;;;;;;18.60;100.00;100368.28;5031663;28;20412;-55
2023/07/11 08:13:55;;;;;;;6.93;0.65;;;;;;;18.65;100.00;100353.06;5028853;28;20378;-52
2023/07/11 08:16:21;;;;;;;5.07;1.65;;;;;;;18.65;100.00;100353.06;5032016;28;20068;-60
2023/07/11 08:18:46;;;;;;;5.25;0.85;;;;;;;18.85;100.00;100341.81;5032119;28;20045;-50
2023/07/11 08:21:12;;;;;;;1.60;0.70;;;;;;;18.77;100.00;100331.50;5029403;28;20029;-60
2023/07/11 08:23:37;;;;;;;8.57;0.95;;;;;;;18.70;100.00;100330.84;5028427;28;20353;-55
2023/07/11 08:26:02;;;;;;;4.32;0.57;;;;;;;19.01;100.00;100340.13;5031617;28;20093;-51
2023/07/11 08:28:27;;;;;;;2.47;0.40;;;;;;;19.27;100.00;100335.88;5038067;28;20083;-52
2023/07/11 08:30:53;;;;;;;4.22;0.55;;;;;;;19.30;100.00;100319.22;5033184;28;20413;-58
2023/07/11 08:33:18;;;;;;;4.28;0.30;;;;;;;19.15;100.00;100311.00;5035877;28;20039;-60
2023/07/11 08:35:44;;;;;;;5.13;0.93;;;;;;;19.32;100.00;100311.72;5033843;28;20038;-49
2023/07/11 08:38:11;;;;;;;4.70;1.40;;;;;;;19.40;100.00;100313.97;5028184;28;20033;-58
2023/07/11 08:40:43;;;;;;;2.08;0.35;;;;;;;19.59;100.00;100310.91;5039951;28;20374;-53
2023/07/11 08:43:23;;;;;;;2.85;1.15;;;;;;;19.64;100.00;100300.19;5038348;28;20028;-56
2023/07/11 08:45:59;;;;;;;4.78;0.68;;;;;;;20.03;100.00;100302.69;5032925;28;20030;-61
2023/07/11 08:48:33;;;;;;;8.35;0.60;;;;;;;20.18;100.00;100305.50;5037383;28;20433;-61
2023/07/11 08:51:12;;;;;;;2.97;0.60;;;;;;;20.00;100.00;100304.03;5030167;28;20032;-62
2023/07/11 08:53:41;;;;;;;1.60;0.43;;;;;;;19.58;100.00;100304.72;5028585;28;20413;-56
2023/07/11 08:56:56;;;;;;;3.10;1.77;;;;;;;19.38;100.00;100299.16;5031499;28;20029;-51
2023/07/11 08:59:29;;;;;;;3.83;1.10;;;;;;;19.36;100.00;100302.09;5034925;28;20080;-58
2023/07/11 09:02:19;;;;;;;3.42;1.17;;;;;;;19.43;100.00;100291.13;5038045;28;20053;-67
2023/07/11 09:04:51;;;;;;;1.27;0.50;;;;;;;19.84;100.00;100286.16;5032036;28;20029;-58
2023/07/11 09:07:28;;;;;;;3.90;0.70;;;;;;;20.29;100.00;100271.41;5030770;28;20114;-51
2023/07/11 09:09:54;;;;;;;2.78;0.50;;;;;;;20.42;100.00;100275.47;5035398;28;20405;-51
2023/07/11 09:12:46;;;;;;;1.67;0.38;;;;;;;20.80;100.00;100266.25;5035484;28;20033;-53
2023/07/11 09:15:18;;;;;;;2.20;0.50;;;;;;;20.92;100.00;100255.25;5025691;28;20121;-66
2023/07/11 09:17:55;;;;;;;1.70;0.45;;;;;;;20.78;100.00;100259.50;5033223;28;20033;-49
2023/07/11 09:20:33;;;;;;;7.03;1.02;;;;;;;21.22;100.00;100267.19;5040364;28;20036;-50
2023/07/11 09:23:13;;;;;;;4.22;0.30;;;;;;;21.31;100.00;100265.59;5032942;28;20033;-60
2023/07/11 09:25:42;;;;;;;7.22;0.38;;;;;;;21.05;100.00;100260.16;5034039;28;20037;-50
2023/07/11 09:28:29;;;;;;;4.80;0.55;;;;;;;20.75;100.00;100266.25;5038304;28;20557;-52
2023/07/11 09:30:58;;;;;;;3.55;0.90;;;;;;;20.63;100.00;100263.78;5033009;28;20087;-51
2023/07/11 09:33:28;;;;;;;3.38;0.47;;;;;;;20.64;100.00;100259.19;5039668;28;20040;-51
2023/07/11 09:35:55;;;;;;;2.92;0.80;;;;;;;21.05;100.00;100243.97;5031129;28;20496;-57
2023/07/11 09:38:39;;;;;;;3.00;0.63;;;;;;;21.38;100.00;100246.47;5037935;28;20044;-56
2023/07/11 09:41:18;;;;;;;3.60;0.47;;;;;;;21.31;100.00;100234.03;5032030;28;20401;-53
2023/07/11 09:43:43;;;;;;;3.42;0.20;;;;;;;21.11;100.00;100237.50;5039596;28;20029;-58
2023/07/11 09:46:14;;;;;;;2.40;0.47;;;;;;;21.50;100.00;100239.75;5028650;28;20036;-51
2023/07/11 09:48:41;;;;;;;5.53;0.88;;;;;;;21.82;100.00;100225.16;5028391;28;20037;-55
2023/07/11 09:51:28;;;;;;;5.80;1.05;;;;;;;22.20;100.00;100229.19;5034275;28;20029;-50
2023/07/11 09:53:53;;;;;;;4.28;0.88;;;;;;;22.11;100.00;100222.69;5029312;28;20037;-62
2023/07/11 09:56:19;;;;;;;2.00;0.32;;;;;;;22.24;100.00;100213.22;5029682;28;20362;-55
2023/07/11 09:58:53;;;;;;;7.30;0.90;;;;;;;22.34;100.00;100218.59;5034772;28;20025;-54
2023/07/11 10:01:24;;;;;;;4.78;0.47;;;;;;;21.95;100.00;100223.81;5030552;28;20028;-51
2023/07/11 10:03:53;;;;;;;9.55;0.80;;;;;;;21.72;100.00;100217.09;5029339;28;20025;-53
2023/07/11 10:06:29;;;;;;;4.68;0.50;;;;;;;21.58;100.00;100226.78;5032464;28;20489;-54
2023/07/11 10:08:54;;;;;;;2.72;0.30;;;;;;;21.58;100.00;100226.78;5027253;28;20036;-50
2023/07/11 10:11:21;;;;;;;2.08;0.30;;;;;;;;;;5035576;28;20060;-60
2023/07/11 10:13:46;;;;;;;1.83;0.35;;;;;;;21.77;100.00;100220.59;5029345;28;20017;-65
2023/07/11 10:16:20;;;;;;;1.95;0.40;;;;;;;22.13;100.00;100217.81;5035176;28;20111;-54
2023/07/11 10:18:46;;;;;;;3.55;0.40;;;;;;;22.44;100.00;100212.34;5035520;28;20036;-58
2023/07/11 10:21:15;;;;;;;3.30;1.20;;;;;;;22.62;100.00;100202.81;5033814;28;20037;-50
2023/07/11 10:23:46;;;;;;;3.15;0.93;;;;;;;22.75;100.00;100204.09;5023612;28;20064;-51
2023/07/11 10:26:27;;;;;;;7.70;1.40;;;;;;;22.93;100.00;100211.56;5028090;28;20034;-65
2023/07/11 10:29:15;;;;;;;5.35;1.52;;;;;;;23.13;100.00;100226.88;5030090;28;20041;-61
2023/07/11 10:31:49;;;;;;;3.35;0.25;;;;;;;23.15;100.00;100221.19;5029582;28;20031;-57
2023/07/11 10:34:20;;;;;;;1.15;0.30;;;;;;;22.63;100.00;100224.13;5031259;28;20037;-51
2023/07/11 10:36:54;;;;;;;5.93;0.57;;;;;;;22.27;100.00;100218.06;5028743;28;20017;-58
2023/07/11 10:39:19;;;;;;;2.20;0.55;;;;;;;22.50;100.00;100215.84;5036319;28;20025;-53
2023/07/11 10:42:03;;;;;;;1.40;0.53;;;;;;;22.70;100.00;100212.25;5027953;28;20044;-51
2023/07/11 10:44:34;;;;;;;2.42;0.90;;;;;;;23.01;100.00;100221.00;5028143;28;20286;-54
2023/07/11 10:47:01;;;;;;;3.08;0.95;;;;;;;23.12;100.00;100213.63;5027555;28;20025;-51
2023/07/11 10:49:35;;;;;;;3.05;0.45;;;;;;;23.15;100.00;100215.78;5033230;28;20132;-58
2023/07/11 10:52:13;;;;;;;6.60;0.65;;;;;;;22.71;100.00;100211.94;5031129;28;20453;-49
2023/07/11 10:55:05;;;;;;;4.03;0.68;;;;;;;22.80;100.00;100199.47;5027814;28;20024;-61
2023/07/11 10:57:50;;;;;;;3.85;0.70;;;;;;;23.07;100.00;100198.25;5027701;28;20041;-54
2023/07/11 11:00:17;;;;;;;3.15;0.65;;;;;;;23.26;100.00;100196.50;5028711;28;20033;-51
2023/07/11 11:03:21;;;;;;;3.67;0.43;;;;;;;23.62;100.00;100187.25;5027050;28;20045;-50
2023/07/11 11:06:00;;;;;;;2.13;0.40;;;;;;;23.65;100.00;100192.13;5032160;28;20040;-55
2023/07/11 11:08:38;;;;;;;2.25;0.55;;;;;;;23.55;100.00;100203.84;5037109;28;20599;-50
2023/07/11 11:11:13;;;;;;;2.80;0.40;;;;;;;23.33;100.00;100201.56;5033211;28;20037;-51
2023/07/11 11:13:54;;;;;;;2.30;0.40;;;;;;;23.39;100.00;100188.81;5033845;28;20841;-51
2023/07/11 11:16:32;;;;;;;2.85;0.57;;;;;;;23.71;100.00;100188.25;5029631;28;20034;-62
2023/07/11 11:19:21;;;;;;;1.77;0.82;;;;;;;23.60;100.00;100179.44;5027353;28;20045;-52
2023/07/11 11:22:17;;;;;;;4.22;0.98;;;;;;;23.71;100.00;100193.69;5021404;28;20040;-61